createdAt,value
2017-11-20T00:01:16.000Z,1.23
2017-11-20T00:03:42.389Z,1.30
2017-11-20T00:06:08.838Z,1.23
2017-11-20T00:08:35.946Z,1.10
2017-11-20T00:11:02.314Z,1.20
2017-11-20T00:13:29.503Z,0.97
2017-11-20T00:15:55.913Z,1.10
2017-11-20T00:18:22.272Z,1.40
2017-11-20T00:20:48.605Z,1.10
2017-11-20T00:23:15.036Z,0.90
2017-11-20T00:25:41.427Z,1.23
2017-11-20T00:28:08.526Z,0.90
2017-11-20T00:30:34.910Z,1.00
2017-11-20T00:33:01.998Z,0.90
2017-11-20T00:35:28.456Z,1.10
2017-11-20T00:37:54.870Z,1.30
2017-11-20T00:40:21.215Z,1.10
2017-11-20T00:42:48.342Z,1.20
2017-11-20T00:45:14.710Z,0.80
2017-11-20T00:47:41.263Z,0.90
2017-11-20T00:50:08.288Z,1.00
2017-11-20T00:52:34.594Z,2.17
2017-11-20T00:55:00.958Z,1.00
2017-11-20T00:57:27.286Z,0.93
2017-11-20T00:59:53.640Z,0.90
2017-11-20T01:02:20.724Z,0.83
2017-11-20T01:04:47.074Z,1.23
2017-11-20T01:07:13.478Z,0.90
2017-11-20T01:09:40.550Z,1.00
2017-11-20T01:12:06.851Z,1.03
2017-11-20T01:14:33.932Z,1.10
2017-11-20T01:17:00.337Z,0.90
2017-11-20T01:19:26.720Z,0.87
2017-11-20T01:21:53.044Z,1.10
2017-11-20T01:24:19.400Z,1.27
2017-11-20T01:26:46.476Z,0.83
2017-11-20T01:29:13.597Z,1.43
2017-11-20T01:31:39.967Z,1.80
2017-11-20T01:34:06.328Z,1.13
2017-11-20T01:36:32.763Z,1.30
2017-11-20T01:38:59.086Z,1.50
2017-11-20T01:41:25.417Z,1.80
2017-11-20T01:43:52.000Z,1.17
2017-11-20T01:46:18.298Z,1.10
2017-11-20T01:48:44.628Z,0.93
2017-11-20T01:51:10.950Z,1.03
2017-11-20T01:53:37.305Z,1.37
2017-11-20T01:56:03.654Z,1.40
2017-11-20T01:58:30.008Z,1.27
2017-11-20T02:00:56.338Z,0.97
2017-11-20T02:03:23.448Z,0.93
2017-11-20T02:05:49.779Z,0.80
2017-11-20T02:08:16.153Z,1.30
2017-11-20T02:10:43.294Z,1.40
2017-11-20T02:13:09.641Z,1.10
2017-11-20T02:15:36.725Z,1.27
2017-11-20T02:18:03.055Z,1.10
2017-11-20T02:20:29.473Z,0.90
2017-11-20T02:22:55.792Z,1.00
2017-11-20T02:25:22.177Z,0.90
2017-11-20T02:27:48.573Z,1.17
2017-11-20T02:30:14.855Z,0.87
2017-11-20T02:32:41.183Z,1.07
2017-11-20T02:35:07.538Z,1.13
2017-11-20T02:37:34.561Z,1.40
2017-11-20T02:40:00.957Z,1.40
2017-11-20T02:42:27.316Z,1.60
2017-11-20T02:44:53.587Z,1.70
2017-11-20T02:47:19.893Z,1.60
2017-11-20T02:49:46.989Z,2.07
2017-11-20T02:52:13.300Z,1.60
2017-11-20T02:54:39.627Z,1.53
2017-11-20T02:57:06.702Z,2.03
2017-11-20T02:59:33.036Z,1.50
2017-11-20T03:01:59.341Z,1.80
2017-11-20T03:04:25.662Z,1.30
2017-11-20T03:06:52.064Z,2.07
2017-11-20T03:09:18.426Z,1.30
2017-11-20T03:11:44.750Z,2.00
2017-11-20T03:14:11.835Z,1.30
2017-11-20T03:16:38.226Z,1.80
2017-11-20T03:19:05.273Z,1.30
2017-11-20T03:21:31.599Z,1.87
2017-11-20T03:23:57.928Z,2.00
2017-11-20T03:26:24.295Z,1.53
2017-11-20T03:28:50.632Z,2.30
2017-11-20T03:31:16.933Z,1.60
2017-11-20T03:33:43.359Z,2.67
2017-11-20T03:36:09.709Z,1.60
2017-11-20T03:38:36.075Z,1.93
2017-11-20T03:41:09.271Z,1.40
2017-11-20T03:43:35.675Z,2.07
2017-11-20T03:46:01.998Z,1.70
2017-11-20T03:48:29.080Z,1.57
2017-11-20T03:50:55.404Z,2.60
2017-11-20T03:53:22.646Z,2.17
2017-11-20T03:55:49.050Z,1.73
2017-11-20T03:58:16.130Z,2.90
2017-11-20T04:00:42.494Z,1.63
2017-11-20T04:03:08.852Z,2.47
2017-11-20T04:05:35.978Z,1.90
2017-11-20T04:08:02.371Z,2.57
2017-11-20T04:10:28.767Z,2.50
2017-11-20T04:12:55.074Z,2.20
2017-11-20T04:15:21.419Z,2.00
2017-11-20T04:17:47.759Z,2.20
2017-11-20T04:20:14.250Z,1.97
2017-11-20T04:22:40.554Z,1.70
2017-11-20T04:25:07.594Z,1.97
2017-11-20T04:27:34.722Z,2.37
2017-11-20T04:30:01.074Z,2.67
2017-11-20T04:32:27.412Z,2.23
2017-11-20T04:34:54.465Z,3.33
2017-11-20T04:37:20.914Z,2.23
2017-11-20T04:39:53.061Z,2.80
2017-11-20T04:42:20.142Z,2.00
2017-11-20T04:44:46.528Z,1.80
2017-11-20T04:47:12.848Z,2.10
2017-11-20T04:49:39.324Z,2.20
2017-11-20T04:52:05.645Z,2.00
2017-11-20T04:54:32.686Z,1.77
2017-11-20T04:56:59.883Z,2.17
2017-11-20T04:59:26.219Z,2.40
2017-11-20T05:01:52.534Z,1.83
2017-11-20T05:04:18.870Z,2.10
2017-11-20T05:06:45.986Z,2.20
2017-11-20T05:09:12.319Z,2.60
2017-11-20T05:11:39.536Z,4.07
2017-11-20T05:14:05.897Z,2.30
2017-11-20T05:16:33.050Z,2.97
2017-11-20T05:19:00.190Z,3.37
2017-11-20T05:21:27.381Z,1.70
2017-11-20T05:23:53.845Z,2.00
2017-11-20T05:26:20.427Z,1.93
2017-11-20T05:28:46.797Z,1.33
2017-11-20T05:31:13.154Z,2.13
2017-11-20T05:33:39.500Z,1.60
2017-11-20T05:36:05.920Z,1.33
2017-11-20T05:38:32.195Z,1.60
2017-11-20T05:40:58.506Z,2.30
2017-11-20T05:43:25.622Z,2.10
2017-11-20T05:45:51.994Z,1.50
2017-11-20T05:48:18.301Z,1.50
2017-11-20T05:50:44.827Z,1.60
2017-11-20T05:53:11.326Z,1.80
2017-11-20T05:55:37.712Z,1.73
2017-11-20T05:58:04.836Z,2.57
2017-11-20T06:00:31.278Z,2.07
2017-11-20T06:02:57.635Z,1.83
2017-11-20T06:05:23.975Z,2.93
2017-11-20T06:07:50.517Z,2.10
2017-11-20T06:10:16.944Z,2.27
2017-11-20T06:12:43.615Z,1.70
2017-11-20T06:15:09.959Z,3.37
2017-11-20T06:17:36.267Z,2.60
2017-11-20T06:20:02.662Z,2.20
2017-11-20T06:22:29.064Z,3.07
2017-11-20T06:24:55.350Z,2.80
2017-11-20T06:27:21.769Z,3.50
2017-11-20T06:29:48.192Z,3.80
2017-11-20T06:32:15.313Z,3.53
2017-11-20T06:34:41.681Z,2.93
2017-11-20T06:37:08.056Z,3.50
2017-11-20T06:39:34.399Z,3.47
2017-11-20T06:42:00.913Z,3.57
2017-11-20T06:44:27.269Z,3.63
2017-11-20T06:46:53.526Z,3.80
2017-11-20T06:49:20.596Z,4.17
2017-11-20T06:51:46.910Z,4.13
2017-11-20T06:54:13.987Z,2.97
2017-11-20T06:56:40.399Z,3.40
2017-11-20T06:59:07.470Z,3.63
2017-11-20T07:01:33.809Z,4.87
2017-11-20T07:04:00.134Z,3.13
2017-11-20T07:06:26.525Z,2.90
2017-11-20T07:08:52.939Z,3.13
2017-11-20T07:11:19.284Z,3.20
2017-11-20T07:13:45.654Z,4.43
2017-11-20T07:16:12.003Z,3.63
2017-11-20T07:18:38.359Z,3.03
2017-11-20T07:21:04.713Z,3.90
2017-11-20T07:23:31.072Z,3.90
2017-11-20T07:26:16.707Z,4.60
2017-11-20T07:29:01.804Z,5.83
2017-11-20T07:31:28.116Z,5.67
2017-11-20T07:34:13.362Z,4.90
2017-11-20T07:40:16.094Z,3.50
2017-11-20T07:42:42.443Z,4.17
2017-11-20T07:45:08.785Z,4.27
2017-11-20T07:50:50.832Z,2.93
2017-11-20T07:53:17.178Z,2.73
2017-11-20T07:55:43.502Z,3.03
2017-11-20T07:58:09.876Z,4.00
2017-11-20T08:00:36.328Z,2.90
2017-11-20T08:03:03.412Z,2.70
2017-11-20T08:05:29.739Z,3.20
2017-11-20T08:07:56.105Z,2.20
2017-11-20T08:10:22.473Z,3.30
2017-11-20T08:12:48.794Z,3.70
2017-11-20T08:15:15.174Z,4.10
2017-11-20T08:17:41.539Z,2.70
2017-11-20T08:20:07.869Z,3.03
2017-11-20T08:22:34.187Z,2.70
2017-11-20T08:25:00.562Z,3.60
2017-11-20T08:27:26.896Z,2.93
2017-11-20T08:29:53.296Z,2.97
2017-11-20T08:32:19.636Z,2.77
2017-11-20T08:34:46.043Z,4.10
2017-11-20T08:37:12.456Z,2.90
2017-11-20T08:39:38.776Z,2.30
2017-11-20T08:42:05.817Z,3.37
2017-11-20T08:44:32.895Z,2.77
2017-11-20T08:46:59.249Z,4.00
2017-11-20T08:49:25.573Z,3.43
2017-11-20T08:51:51.914Z,2.53
2017-11-20T09:00:24.089Z,2.97
2017-11-20T09:02:50.433Z,3.53
2017-11-20T09:05:16.838Z,2.80
2017-11-20T09:07:43.981Z,3.43
2017-11-20T09:10:11.174Z,2.80
2017-11-20T09:12:37.626Z,2.17
2017-11-20T09:15:04.004Z,2.27
2017-11-20T09:17:31.148Z,1.70
2017-11-20T09:19:58.218Z,1.67
2017-11-20T09:22:24.640Z,3.03
2017-11-20T09:24:51.006Z,2.40
2017-11-20T09:27:17.395Z,2.30
2017-11-20T09:29:44.479Z,2.03
2017-11-20T09:32:10.880Z,1.63
2017-11-20T09:34:38.036Z,2.10
2017-11-20T09:37:05.144Z,2.10
2017-11-20T09:39:31.536Z,1.97
2017-11-20T09:41:58.008Z,1.80
2017-11-20T09:44:24.403Z,1.70
2017-11-20T09:46:50.809Z,2.77
2017-11-20T09:49:17.897Z,2.40
2017-11-20T09:51:44.386Z,3.20
2017-11-20T09:54:11.477Z,2.43
2017-11-20T09:56:37.940Z,1.63
2017-11-20T09:59:05.135Z,2.00
2017-11-20T10:01:32.222Z,1.73
2017-11-20T10:03:58.658Z,1.63
2017-11-20T10:06:24.990Z,1.53
2017-11-20T10:08:51.395Z,1.90
2017-11-20T10:14:20.698Z,2.03
2017-11-20T10:16:47.844Z,1.77
2017-11-20T10:19:14.966Z,1.90
2017-11-20T10:21:41.398Z,1.73
2017-11-20T10:24:07.715Z,1.90
2017-11-20T10:26:34.054Z,2.07
2017-11-20T10:29:00.456Z,1.90
2017-11-20T10:31:27.846Z,2.53
2017-11-20T10:33:54.281Z,2.30
2017-11-20T10:36:20.685Z,2.50
2017-11-20T10:38:47.037Z,1.83
2017-11-20T10:41:13.496Z,2.50
2017-11-20T10:43:39.804Z,2.00
2017-11-20T10:46:06.188Z,2.50
2017-11-20T10:48:33.291Z,2.73
2017-11-20T10:50:59.599Z,2.00
2017-11-20T10:53:25.923Z,1.73
2017-11-20T10:55:52.357Z,1.70
2017-11-20T10:58:18.722Z,1.60
2017-11-20T11:00:45.107Z,1.77
2017-11-20T11:03:11.456Z,2.33
2017-11-20T11:05:37.859Z,2.63
2017-11-20T11:08:05.010Z,2.93
2017-11-20T11:10:32.095Z,2.23
2017-11-20T11:12:58.413Z,2.30
2017-11-20T11:15:24.760Z,2.47
2017-11-20T11:17:51.138Z,2.80
2017-11-20T11:20:18.253Z,2.93
2017-11-20T11:22:44.581Z,2.23
2017-11-20T11:25:10.914Z,2.63
2017-11-20T11:27:37.408Z,2.30
2017-11-20T11:30:04.499Z,2.90
2017-11-20T11:32:30.834Z,3.20
2017-11-20T11:34:57.167Z,2.67
2017-11-20T11:37:23.505Z,2.80
2017-11-20T11:39:49.786Z,3.00
2017-11-20T11:42:16.097Z,3.00
2017-11-20T11:44:43.179Z,3.17
2017-11-20T11:47:09.576Z,3.70
2017-11-20T11:49:36.775Z,3.00
2017-11-20T11:52:03.125Z,3.07
2017-11-20T11:54:29.451Z,2.70
2017-11-20T11:56:55.753Z,2.87
2017-11-20T11:59:22.129Z,2.63
2017-11-20T12:04:49.811Z,2.63
2017-11-20T12:07:16.311Z,2.90
2017-11-20T12:09:42.857Z,3.97
2017-11-20T12:12:09.227Z,2.33
2017-11-20T12:14:35.568Z,3.40
2017-11-20T12:17:01.924Z,3.33
2017-11-20T12:19:28.268Z,3.70
2017-11-20T12:21:54.642Z,3.57
2017-11-20T12:24:21.031Z,4.30
2017-11-20T12:26:47.411Z,3.70
2017-11-20T12:29:13.829Z,5.20
2017-11-20T12:31:40.201Z,5.10
2017-11-20T12:34:07.360Z,5.50
2017-11-20T12:36:34.685Z,4.33
2017-11-20T12:39:01.141Z,5.30
2017-11-20T12:41:28.223Z,3.73
2017-11-20T12:43:54.561Z,3.10
2017-11-20T12:46:21.012Z,3.03
2017-11-20T12:48:47.379Z,3.50
2017-11-20T12:51:14.520Z,3.77
2017-11-20T12:53:40.864Z,3.67
2017-11-20T12:56:07.998Z,3.07
2017-11-20T12:58:34.358Z,4.07
2017-11-20T13:01:01.445Z,4.37
2017-11-20T13:03:27.827Z,4.23
2017-11-20T13:05:54.317Z,4.30
2017-11-20T13:08:20.666Z,4.20
2017-11-20T13:10:46.991Z,4.80
2017-11-20T13:13:13.299Z,4.67
2017-11-20T13:15:39.653Z,5.10
2017-11-20T13:18:05.977Z,4.80
2017-11-20T13:20:32.565Z,5.13
2017-11-20T13:22:59.715Z,5.77
2017-11-20T13:25:26.079Z,5.40
2017-11-20T13:27:52.423Z,6.10
2017-11-20T13:30:18.761Z,6.13
2017-11-20T13:32:45.243Z,6.37
2017-11-20T13:35:12.386Z,6.43
2017-11-20T13:37:39.498Z,6.10
2017-11-20T13:40:05.932Z,6.57
2017-11-20T13:42:32.362Z,5.50
2017-11-20T13:44:58.742Z,6.37
2017-11-20T13:47:25.151Z,6.10
2017-11-20T13:49:51.500Z,5.20
2017-11-20T13:52:17.810Z,5.23
2017-11-20T13:54:44.155Z,4.73
2017-11-20T13:57:10.490Z,5.53
2017-11-20T13:59:37.673Z,5.63
2017-11-20T14:02:03.975Z,3.70
2017-11-20T14:04:30.415Z,5.10
2017-11-20T14:06:56.847Z,4.30
2017-11-20T14:09:23.213Z,4.43
2017-11-20T14:11:49.594Z,3.67
2017-11-20T14:14:16.036Z,6.93
2017-11-20T14:16:42.374Z,4.07
2017-11-20T14:19:08.765Z,3.33
2017-11-20T14:21:35.097Z,4.00
2017-11-20T14:24:01.467Z,4.93
2017-11-20T14:26:28.606Z,3.40
2017-11-20T14:28:54.964Z,3.67
2017-11-20T14:31:21.299Z,3.10
2017-11-20T14:33:48.384Z,3.30
2017-11-20T14:36:14.674Z,3.43
2017-11-20T14:38:41.112Z,3.40
2017-11-20T14:41:08.248Z,2.90
2017-11-20T14:43:34.755Z,3.00
2017-11-20T14:46:01.899Z,2.57
2017-11-20T14:48:39.890Z,2.00
2017-11-20T14:51:32.308Z,3.20
2017-11-20T14:54:02.936Z,2.57
2017-11-20T14:56:29.314Z,2.23
2017-11-20T14:58:55.693Z,2.20
2017-11-20T15:01:35.837Z,2.93
2017-11-20T15:04:02.192Z,1.97
2017-11-20T15:06:28.535Z,1.70
2017-11-20T15:08:54.925Z,2.50
2017-11-20T15:11:22.045Z,2.20
2017-11-20T15:13:48.422Z,2.10
2017-11-20T15:16:15.520Z,1.80
2017-11-20T15:18:41.856Z,1.90
2017-11-20T15:21:08.432Z,2.20
2017-11-20T15:23:35.554Z,2.97
2017-11-20T15:26:01.877Z,2.63
2017-11-20T15:28:52.164Z,2.47
2017-11-20T15:31:18.572Z,2.93
2017-11-20T15:33:44.855Z,2.23
2017-11-20T15:36:12.022Z,2.30
2017-11-20T15:38:39.156Z,3.30
2017-11-20T15:41:05.483Z,2.63
2017-11-20T15:43:31.899Z,2.90
2017-11-20T15:45:58.227Z,2.53
2017-11-20T15:48:24.546Z,3.40
2017-11-20T15:50:50.889Z,2.20
2017-11-20T15:53:17.213Z,2.80
2017-11-20T15:55:43.500Z,2.90
2017-11-20T15:58:09.949Z,3.50
2017-11-20T16:00:36.257Z,2.50
2017-11-20T16:03:02.603Z,2.73
2017-11-20T16:05:29.040Z,3.67
2017-11-20T16:07:55.454Z,2.17
2017-11-20T16:10:22.518Z,2.50
2017-11-20T16:12:48.854Z,2.40
2017-11-20T16:15:15.183Z,3.10
2017-11-20T16:17:41.559Z,2.40
2017-11-20T16:20:07.902Z,3.20
2017-11-20T16:22:34.281Z,3.10
2017-11-20T16:25:00.610Z,2.93
2017-11-20T16:27:27.012Z,2.90
2017-11-20T16:29:53.404Z,2.37
2017-11-20T16:32:19.759Z,3.80
2017-11-20T16:34:47.473Z,2.87
2017-11-20T16:37:13.836Z,2.57
2017-11-20T16:39:40.186Z,2.40
2017-11-20T16:42:06.488Z,2.30
2017-11-20T16:44:32.826Z,2.40
2017-11-20T16:46:59.180Z,3.30
2017-11-20T16:49:26.262Z,2.90
2017-11-20T16:51:53.359Z,3.67
2017-11-20T16:54:19.691Z,3.07
2017-11-20T16:57:04.615Z,2.80
2017-11-20T16:59:31.025Z,3.43
2017-11-20T17:02:25.338Z,3.10
2017-11-20T17:04:52.450Z,3.27
2017-11-20T17:07:18.799Z,2.40
2017-11-20T17:09:45.151Z,3.10
2017-11-20T17:12:12.201Z,3.27
2017-11-20T17:14:38.501Z,3.20
2017-11-20T17:17:04.900Z,2.60
2017-11-20T17:19:31.376Z,2.90
2017-11-20T17:21:58.504Z,3.50
2017-11-20T17:24:24.832Z,2.90
2017-11-20T17:26:51.163Z,2.93
2017-11-20T17:29:17.440Z,3.97
2017-11-20T17:31:43.775Z,4.23
2017-11-20T17:34:10.106Z,5.13
2017-11-20T17:36:36.401Z,3.60
2017-11-20T17:39:02.867Z,2.20
2017-11-20T17:41:29.279Z,2.80
2017-11-20T17:43:55.682Z,2.43
2017-11-20T17:46:22.217Z,3.60
2017-11-20T17:48:48.577Z,2.70
2017-11-20T17:51:14.954Z,3.03
2017-11-20T17:53:41.446Z,3.33
2017-11-20T17:56:08.661Z,3.00
2017-11-20T17:58:35.147Z,2.70
2017-11-20T18:01:04.102Z,3.07
2017-11-20T18:03:30.583Z,3.63
2017-11-20T18:05:56.968Z,3.33
2017-11-20T18:08:23.369Z,3.33
2017-11-20T18:10:49.757Z,2.90
2017-11-20T18:13:16.074Z,3.90
2017-11-20T18:15:42.467Z,2.93
2017-11-20T18:18:08.879Z,3.10
2017-11-20T18:20:35.335Z,4.00
2017-11-20T18:23:01.706Z,2.83
2017-11-20T18:25:28.162Z,3.60
2017-11-20T18:27:55.341Z,3.20
2017-11-20T18:30:21.698Z,3.83
2017-11-20T18:32:48.089Z,3.10
2017-11-20T18:35:14.408Z,2.77
2017-11-20T18:37:41.492Z,3.00
2017-11-20T18:40:07.818Z,3.17
2017-11-20T18:42:34.168Z,4.27
2017-11-20T18:45:00.860Z,3.57
2017-11-20T18:47:27.916Z,3.40
2017-11-20T18:49:54.327Z,4.27
2017-11-20T18:52:20.659Z,3.60
2017-11-20T18:54:48.249Z,4.43
2017-11-20T18:57:14.823Z,3.43
2017-11-20T18:59:41.849Z,3.80
2017-11-20T19:02:28.149Z,4.27
2017-11-20T19:05:13.142Z,3.90
2017-11-20T19:07:59.289Z,4.90
2017-11-20T19:10:26.729Z,3.67
2017-11-20T19:12:53.502Z,4.47
2017-11-20T19:15:26.939Z,4.90
2017-11-20T19:17:53.832Z,3.50
2017-11-20T19:20:20.664Z,4.87
2017-11-20T19:22:48.283Z,3.43
2017-11-20T19:25:14.955Z,3.87
2017-11-20T19:27:41.652Z,4.33
2017-11-20T19:30:08.034Z,3.90
2017-11-20T19:32:35.349Z,4.10
2017-11-20T19:35:02.111Z,3.60
2017-11-20T19:37:28.412Z,3.90
2017-11-20T19:39:54.793Z,4.30
2017-11-20T19:42:21.129Z,3.63
2017-11-20T19:44:48.099Z,2.90
2017-11-20T19:47:15.094Z,4.10
2017-11-20T19:49:41.989Z,2.80
2017-11-20T19:52:08.666Z,2.77
2017-11-20T19:54:35.023Z,3.77
2017-11-20T19:57:01.539Z,3.10
2017-11-20T19:59:28.224Z,3.90
2017-11-20T20:01:55.612Z,3.33
2017-11-20T20:04:22.318Z,3.03
2017-11-20T20:06:48.709Z,3.03
2017-11-20T20:09:15.121Z,3.67
2017-11-20T20:11:41.506Z,3.07
2017-11-20T20:14:27.424Z,4.17
2017-11-20T20:17:04.974Z,3.90
2017-11-20T20:19:32.300Z,3.90
2017-11-20T20:21:58.708Z,3.87
2017-11-20T20:24:25.146Z,3.70
2017-11-20T20:26:51.609Z,3.90
2017-11-20T20:29:18.127Z,4.10
2017-11-20T20:31:44.798Z,3.70
2017-11-20T20:34:11.175Z,3.70
2017-11-20T20:36:37.569Z,3.90
2017-11-20T20:39:03.918Z,5.03
2017-11-20T20:41:31.108Z,4.70
2017-11-20T20:43:57.665Z,5.03
2017-11-20T20:46:24.117Z,5.10
2017-11-20T20:48:50.579Z,4.87
2017-11-20T20:51:17.863Z,5.07
2017-11-20T20:53:44.317Z,5.90
2017-11-20T20:56:10.712Z,5.50
2017-11-20T20:58:37.316Z,4.90
2017-11-20T21:01:03.693Z,5.87
2017-11-20T21:03:30.158Z,5.00
2017-11-20T21:05:56.601Z,5.10
2017-11-20T21:08:22.996Z,5.20
2017-11-20T21:10:55.633Z,4.63
2017-11-20T21:13:23.353Z,5.03
2017-11-20T21:15:50.046Z,5.00
2017-11-20T21:18:17.072Z,4.40
2017-11-20T21:20:43.358Z,4.40
2017-11-20T21:23:09.682Z,4.40
2017-11-20T21:25:36.023Z,4.93
2017-11-20T21:28:02.408Z,4.63
2017-11-20T21:30:29.445Z,4.30
2017-11-20T21:32:55.768Z,3.30
2017-11-20T21:35:22.103Z,3.53
2017-11-20T21:37:48.429Z,3.60
2017-11-20T21:40:14.702Z,3.80
2017-11-20T21:42:41.838Z,3.10
2017-11-20T21:45:08.938Z,3.87
2017-11-20T21:47:35.263Z,3.60
2017-11-20T21:50:01.627Z,3.83
2017-11-20T21:52:27.986Z,3.50
2017-11-20T21:54:55.053Z,3.57
2017-11-20T21:57:21.371Z,3.20
2017-11-20T21:59:48.409Z,3.27
2017-11-20T22:02:14.755Z,3.80
2017-11-20T22:04:41.810Z,3.83
2017-11-20T22:07:08.124Z,4.03
2017-11-20T22:09:35.139Z,3.17
2017-11-20T22:12:01.538Z,3.77
2017-11-20T22:14:27.846Z,3.83
2017-11-20T22:16:54.873Z,3.60
2017-11-20T22:19:21.926Z,3.67
2017-11-20T22:21:49.020Z,4.20
2017-11-20T22:24:21.979Z,3.97
2017-11-20T22:26:49.353Z,4.00
2017-11-20T22:29:16.209Z,3.90
2017-11-20T22:31:43.261Z,3.77
2017-11-20T22:34:10.160Z,4.00
2017-11-20T22:36:37.981Z,3.83
2017-11-20T22:39:04.974Z,4.33
2017-11-20T22:41:32.436Z,3.53
2017-11-20T22:43:59.848Z,3.97
2017-11-20T22:46:27.984Z,3.90
2017-11-20T22:48:54.865Z,3.40
2017-11-20T22:51:22.374Z,2.87
2017-11-20T22:53:51.984Z,3.63
2017-11-20T22:56:18.746Z,3.00
2017-11-20T22:58:45.583Z,2.70
2017-11-20T23:01:12.595Z,2.70
2017-11-20T23:03:40.060Z,3.03
2017-11-20T23:06:07.047Z,2.50
2017-11-20T23:08:33.941Z,1.90
2017-11-20T23:11:01.470Z,2.10
2017-11-20T23:13:28.470Z,2.20
2017-11-20T23:15:55.392Z,2.60
2017-11-20T23:18:22.187Z,1.80
2017-11-20T23:20:49.154Z,2.30
2017-11-20T23:23:17.153Z,2.30
2017-11-20T23:25:45.214Z,2.40
2017-11-20T23:28:13.251Z,2.40
2017-11-20T23:30:40.918Z,1.90
2017-11-20T23:33:07.220Z,2.90
2017-11-20T23:35:33.528Z,2.40
2017-11-20T23:38:00.675Z,2.17
2017-11-20T23:40:27.830Z,3.73
2017-11-20T23:42:54.911Z,3.47
2017-11-20T23:45:21.279Z,2.90
2017-11-20T23:47:47.645Z,3.23
2017-11-20T23:50:14.772Z,3.30
2017-11-20T23:52:41.092Z,2.97
2017-11-20T23:55:07.422Z,2.30
2017-11-20T23:57:33.758Z,3.47
